createdAt,value
2018-09-30T00:00:17.170Z,4.24
2018-09-30T00:06:12.171Z,3.75
2018-09-30T00:12:07.182Z,4.1
2018-09-30T00:18:02.225Z,4.23
2018-09-30T00:23:57.200Z,3.91
2018-09-30T00:29:52.166Z,3.63
2018-09-30T00:35:47.189Z,3.49
2018-09-30T00:41:42.192Z,3.77
2018-09-30T00:47:37.192Z,3.76
2018-09-30T00:53:32.198Z,3.34
2018-09-30T00:59:27.201Z,3.26
2018-09-30T01:05:22.239Z,3.5
2018-09-30T01:11:17.191Z,3.54
2018-09-30T01:17:12.274Z,3.24
2018-09-30T01:23:07.230Z,3.59
2018-09-30T01:29:02.231Z,3.43
2018-09-30T01:34:57.214Z,3.13
2018-09-30T01:40:52.206Z,3.29
2018-09-30T01:46:47.236Z,3.44
2018-09-30T01:52:42.219Z,3.04
2018-09-30T01:58:37.252Z,3.12
2018-09-30T02:04:32.227Z,3.46
2018-09-30T02:10:27.274Z,3.15
2018-09-30T02:16:22.285Z,3.1
2018-09-30T02:22:17.226Z,2.92
2018-09-30T02:28:12.243Z,2.58
2018-09-30T02:34:07.246Z,2.68
2018-09-30T02:40:02.283Z,2.98
2018-09-30T02:45:57.270Z,3.43
2018-09-30T02:51:52.291Z,2.86
2018-09-30T02:57:47.283Z,2.82
2018-09-30T03:03:42.273Z,2.82
2018-09-30T03:09:37.289Z,2.59
2018-09-30T03:15:32.329Z,2.36
2018-09-30T03:21:27.289Z,2.12
2018-09-30T03:27:22.346Z,2.45
2018-09-30T03:33:17.288Z,2.04
2018-09-30T03:39:12.292Z,2.49
2018-09-30T03:45:07.311Z,2.13
2018-09-30T03:51:02.319Z,2.39
2018-09-30T03:56:57.327Z,2.2
2018-09-30T04:02:52.339Z,2.03
2018-09-30T04:08:47.305Z,2.22
2018-09-30T04:14:42.318Z,2.53
2018-09-30T04:20:37.335Z,2.23
2018-09-30T04:26:32.411Z,2.1
2018-09-30T04:32:27.337Z,2.31
2018-09-30T04:38:22.349Z,1.87
2018-09-30T04:44:17.337Z,2.23
2018-09-30T04:50:12.364Z,2.23
2018-09-30T04:56:07.374Z,2.76
2018-09-30T05:02:02.379Z,2.34
2018-09-30T05:07:57.381Z,2.2
2018-09-30T05:13:52.368Z,2.33
2018-09-30T05:19:47.382Z,2.29
2018-09-30T05:25:42.482Z,1.94
2018-09-30T05:31:37.413Z,2.3
2018-09-30T05:37:32.378Z,2.23
2018-09-30T05:43:27.389Z,2.79
2018-09-30T05:49:22.402Z,3.06
2018-09-30T05:55:17.433Z,3.14
2018-09-30T06:01:12.428Z,3.2
2018-09-30T06:07:07.452Z,3.33
2018-09-30T06:13:02.386Z,4.1
2018-09-30T06:18:57.414Z,6.32
2018-09-30T06:24:52.412Z,4.4
2018-09-30T06:30:47.459Z,3.75
2018-09-30T06:36:42.416Z,3.98
2018-09-30T06:42:37.495Z,3.4
2018-09-30T06:48:32.453Z,3.34
2018-09-30T06:54:27.457Z,2.65
2018-09-30T07:00:22.442Z,2.7
2018-09-30T07:06:17.463Z,2.93
2018-09-30T07:12:12.444Z,2.98
2018-09-30T07:18:07.431Z,2.84
2018-09-30T07:24:02.439Z,2.8
2018-09-30T07:29:57.458Z,2.72
2018-09-30T07:35:52.446Z,3.26
2018-09-30T07:41:47.467Z,2.1
2018-09-30T07:47:42.497Z,2.45
2018-09-30T07:53:37.454Z,2.51
2018-09-30T07:59:32.477Z,2.54
2018-09-30T08:05:27.479Z,2.44
2018-09-30T08:11:22.513Z,2.71
2018-09-30T08:17:17.489Z,3.24
2018-09-30T08:23:12.517Z,2.88
2018-09-30T08:29:07.498Z,2.34
2018-09-30T08:35:02.500Z,2.8
2018-09-30T08:40:57.489Z,2.3
2018-09-30T08:46:52.660Z,2.95
2018-09-30T08:52:47.504Z,3
2018-09-30T08:58:42.525Z,3.93
2018-09-30T09:04:37.522Z,3.69
2018-09-30T09:10:32.523Z,3.68
2018-09-30T09:16:27.536Z,1.51
2018-09-30T09:22:22.550Z,1.37
2018-09-30T09:28:17.568Z,1.49
2018-09-30T09:34:12.602Z,1.16
2018-09-30T09:40:07.545Z,1.57
2018-09-30T09:46:02.590Z,1.44
2018-09-30T09:51:57.557Z,1.68
2018-09-30T09:57:52.558Z,1.37
2018-09-30T10:03:47.577Z,1.57
2018-09-30T10:09:42.571Z,1.19
2018-09-30T10:15:37.583Z,1.25
2018-09-30T10:21:32.631Z,1.48
2018-09-30T10:27:27.575Z,1.35
2018-09-30T10:33:22.584Z,1.55
2018-09-30T10:39:17.862Z,1.4
2018-09-30T10:45:12.604Z,2.18
2018-09-30T10:51:07.610Z,1.44
2018-09-30T10:57:02.629Z,1.6
2018-09-30T11:02:57.625Z,1.39
2018-09-30T11:08:52.601Z,1.57
2018-09-30T11:14:47.640Z,1.39
2018-09-30T11:20:42.637Z,1.09
2018-09-30T11:26:37.652Z,1.65
2018-09-30T11:32:32.632Z,1.64
2018-09-30T11:38:27.637Z,1.61
2018-09-30T11:44:22.648Z,1.7
2018-09-30T11:50:17.677Z,1.82
2018-09-30T11:56:12.660Z,1.49
2018-09-30T12:02:07.681Z,1.72
2018-09-30T12:08:02.706Z,2.94
2018-09-30T12:13:57.675Z,1.99
2018-09-30T12:19:52.679Z,1.96
2018-09-30T12:25:47.753Z,2.14
2018-09-30T12:31:42.727Z,1.84
2018-09-30T12:37:37.710Z,2.3
2018-09-30T12:43:32.750Z,1.94
2018-09-30T12:49:27.700Z,1.87
2018-09-30T12:55:22.695Z,1.81
2018-09-30T13:01:17.730Z,1.85
2018-09-30T13:07:12.722Z,1.77
2018-09-30T13:13:07.727Z,1.96
2018-09-30T13:19:02.757Z,1.73
2018-09-30T13:24:57.721Z,1.7
2018-09-30T13:30:52.725Z,1.5
2018-09-30T13:36:47.758Z,1.78
2018-09-30T13:42:42.751Z,2.23
2018-09-30T13:48:37.749Z,1.83
2018-09-30T13:54:32.768Z,1.88
2018-09-30T14:00:27.746Z,2.35
2018-09-30T14:06:22.785Z,2.56
2018-09-30T14:12:17.783Z,2.72
2018-09-30T14:18:12.781Z,2.77
2018-09-30T14:24:07.781Z,2.67
2018-09-30T14:30:02.799Z,2.44
2018-09-30T14:35:57.790Z,2.66
2018-09-30T14:41:52.772Z,2.6
2018-09-30T14:47:47.799Z,2.66
2018-09-30T14:53:42.813Z,2.73
2018-09-30T14:59:37.886Z,2.82
2018-09-30T15:05:32.804Z,2.62
2018-09-30T15:11:27.855Z,2.55
2018-09-30T15:17:22.851Z,2.61
2018-09-30T15:23:17.815Z,2.75
2018-09-30T15:29:12.821Z,2.37
2018-09-30T15:35:07.843Z,2.28
2018-09-30T15:41:02.821Z,2.71
2018-09-30T15:46:57.833Z,2.72
2018-09-30T15:52:52.846Z,2.49
2018-09-30T15:58:47.843Z,2.58
2018-09-30T16:04:42.914Z,2.56
2018-09-30T16:10:37.850Z,2.37
2018-09-30T16:16:32.865Z,2.93
2018-09-30T16:22:27.861Z,2.6
2018-09-30T16:28:22.867Z,3.02
2018-09-30T16:34:17.871Z,2.85
2018-09-30T16:40:12.934Z,2.58
2018-09-30T16:46:07.872Z,2.82
2018-09-30T16:52:02.875Z,2.51
2018-09-30T16:57:57.924Z,3.06
2018-09-30T17:03:52.922Z,2.62
2018-09-30T17:09:47.877Z,2.79
2018-09-30T17:15:42.917Z,3.07
2018-09-30T17:21:37.914Z,2.9
2018-09-30T17:27:32.898Z,2.68
2018-09-30T17:33:27.911Z,2.68
2018-09-30T17:39:22.918Z,2.46
2018-09-30T17:45:17.918Z,2.73
2018-09-30T17:51:12.960Z,3.15
2018-09-30T17:57:07.916Z,3.26
2018-09-30T18:03:02.930Z,2.75
2018-09-30T18:08:57.978Z,3
2018-09-30T18:14:52.963Z,3.13
2018-09-30T18:20:47.946Z,3.19
2018-09-30T18:26:42.951Z,3.6
2018-09-30T18:32:37.982Z,3.25
2018-09-30T18:38:32.964Z,3.25
2018-09-30T18:44:27.942Z,3.51
2018-09-30T18:50:22.959Z,3.56
2018-09-30T18:56:17.978Z,3.56
2018-09-30T19:02:13.015Z,3.16
2018-09-30T19:08:08.003Z,3.55
2018-09-30T19:14:02.980Z,2.99
2018-09-30T19:19:57.994Z,3.37
2018-09-30T19:25:52.999Z,3.84
2018-09-30T19:31:47.994Z,3.53
2018-09-30T19:37:42.994Z,3.48
2018-09-30T19:43:38.004Z,3.6
2018-09-30T19:49:32.986Z,3.51
2018-09-30T19:55:28.053Z,3.11
2018-09-30T20:01:23.019Z,3.27
2018-09-30T20:07:17.999Z,3.58
2018-09-30T20:13:13.041Z,3.42
2018-09-30T20:19:08.066Z,3.22
2018-09-30T20:25:03.103Z,3.3
2018-09-30T20:30:58.048Z,3.23
2018-09-30T20:36:53.052Z,3.4
2018-09-30T20:42:48.120Z,3.94
2018-09-30T20:48:43.040Z,3.39
2018-09-30T20:54:38.129Z,3.29
2018-09-30T21:00:33.055Z,3.78
2018-09-30T21:06:28.066Z,3.67
2018-09-30T21:12:23.071Z,3.37
2018-09-30T21:18:18.082Z,3.51
2018-09-30T21:24:13.064Z,3.86
2018-09-30T21:30:08.081Z,3.54
2018-09-30T21:36:03.077Z,3.63
2018-09-30T21:41:58.083Z,3.69
2018-09-30T21:47:53.101Z,3.51
2018-09-30T21:53:48.089Z,3.81
2018-09-30T21:59:43.097Z,3.73
2018-09-30T22:05:38.106Z,3.83
2018-09-30T22:11:33.084Z,3.92
2018-09-30T22:17:28.105Z,4.17
2018-09-30T22:23:23.093Z,4.2
2018-09-30T22:29:18.125Z,4.34
2018-09-30T22:35:13.139Z,3.89
2018-09-30T22:41:08.100Z,3.9
2018-09-30T22:47:03.112Z,4.02
2018-09-30T22:52:58.153Z,4.3
2018-09-30T22:58:53.173Z,4.4
2018-09-30T23:04:48.154Z,3.85
2018-09-30T23:10:43.187Z,3.93
2018-09-30T23:16:38.139Z,4.25
2018-09-30T23:22:33.125Z,4.26
2018-09-30T23:28:28.169Z,4.54
2018-09-30T23:34:23.141Z,4.29
2018-09-30T23:40:18.134Z,4.21
2018-09-30T23:46:13.133Z,4.09
2018-09-30T23:52:08.147Z,4.45
2018-09-30T23:58:03.199Z,4.03
